sensor_id;sensor_type;location;lat;lon;timestamp;P1;durP1;ratioP1;P2;durP2;ratioP2
10641;SDS011;5369;49.586;8.646;2022-07-24T00:00:21;6.30;;;5.70;;
10641;SDS011;5369;49.586;8.646;2022-07-24T00:02:47;6.97;;;6.37;;
10641;SDS011;5369;49.586;8.646;2022-07-24T00:05:13;6.20;;;5.60;;
10641;SDS011;5369;49.586;8.646;2022-07-24T00:07:39;6.00;;;5.40;;
10641;SDS011;5369;49.586;8.646;2022-07-24T00:10:06;6.73;;;6.07;;
10641;SDS011;5369;49.586;8.646;2022-07-24T00:12:32;5.77;;;5.27;;
10641;SDS011;5369;49.586;8.646;2022-07-24T00:14:58;6.57;;;5.70;;
10641;SDS011;5369;49.586;8.646;2022-07-24T00:17:25;6.00;;;5.50;;
10641;SDS011;5369;49.586;8.646;2022-07-24T00:19:51;6.73;;;6.03;;
10641;SDS011;5369;49.586;8.646;2022-07-24T00:22:17;6.73;;;6.03;;
10641;SDS011;5369;49.586;8.646;2022-07-24T00:24:44;6.30;;;5.70;;
10641;SDS011;5369;49.586;8.646;2022-07-24T00:27:10;6.53;;;5.93;;
10641;SDS011;5369;49.586;8.646;2022-07-24T00:29:36;6.00;;;5.40;;
10641;SDS011;5369;49.586;8.646;2022-07-24T00:32:02;6.70;;;6.00;;
10641;SDS011;5369;49.586;8.646;2022-07-24T00:34:29;6.43;;;5.70;;
10641;SDS011;5369;49.586;8.646;2022-07-24T00:36:55;6.03;;;5.43;;
10641;SDS011;5369;49.586;8.646;2022-07-24T00:39:21;9.73;;;6.23;;
10641;SDS011;5369;49.586;8.646;2022-07-24T00:41:47;6.57;;;5.97;;
10641;SDS011;5369;49.586;8.646;2022-07-24T00:44:15;6.80;;;6.10;;
10641;SDS011;5369;49.586;8.646;2022-07-24T00:46:43;5.90;;;5.40;;
10641;SDS011;5369;49.586;8.646;2022-07-24T00:49:11;6.60;;;5.77;;
10641;SDS011;5369;49.586;8.646;2022-07-24T00:51:37;6.53;;;5.87;;
10641;SDS011;5369;49.586;8.646;2022-07-24T00:54:05;6.00;;;5.43;;
10641;SDS011;5369;49.586;8.646;2022-07-24T00:56:32;8.80;;;5.87;;
10641;SDS011;5369;49.586;8.646;2022-07-24T00:59:02;6.37;;;5.77;;
10641;SDS011;5369;49.586;8.646;2022-07-24T01:01:29;6.67;;;6.07;;
10641;SDS011;5369;49.586;8.646;2022-07-24T01:03:56;7.63;;;6.40;;
10641;SDS011;5369;49.586;8.646;2022-07-24T01:06:22;6.63;;;6.03;;
10641;SDS011;5369;49.586;8.646;2022-07-24T01:08:49;8.47;;;6.57;;
10641;SDS011;5369;49.586;8.646;2022-07-24T01:11:16;6.63;;;6.03;;
10641;SDS011;5369;49.586;8.646;2022-07-24T01:13:42;6.80;;;6.10;;
10641;SDS011;5369;49.586;8.646;2022-07-24T01:16:09;6.53;;;5.50;;
10641;SDS011;5369;49.586;8.646;2022-07-24T01:18:36;6.87;;;6.27;;
10641;SDS011;5369;49.586;8.646;2022-07-24T01:21:02;7.90;;;6.37;;
10641;SDS011;5369;49.586;8.646;2022-07-24T01:23:29;7.10;;;6.40;;
10641;SDS011;5369;49.586;8.646;2022-07-24T01:25:55;7.00;;;6.30;;
10641;SDS011;5369;49.586;8.646;2022-07-24T01:28:21;7.13;;;6.43;;
10641;SDS011;5369;49.586;8.646;2022-07-24T01:30:47;7.13;;;6.53;;
10641;SDS011;5369;49.586;8.646;2022-07-24T01:33:14;7.53;;;6.83;;
10641;SDS011;5369;49.586;8.646;2022-07-24T01:35:43;7.37;;;6.67;;
10641;SDS011;5369;49.586;8.646;2022-07-24T01:38:09;7.43;;;6.70;;
10641;SDS011;5369;49.586;8.646;2022-07-24T01:40:38;6.90;;;6.20;;
10641;SDS011;5369;49.586;8.646;2022-07-24T01:43:05;7.40;;;6.70;;
10641;SDS011;5369;49.586;8.646;2022-07-24T01:45:32;7.60;;;6.80;;
10641;SDS011;5369;49.586;8.646;2022-07-24T01:47:58;7.87;;;7.07;;
10641;SDS011;5369;49.586;8.646;2022-07-24T01:50:24;7.80;;;7.10;;
10641;SDS011;5369;49.586;8.646;2022-07-24T01:52:51;7.40;;;6.70;;
10641;SDS011;5369;49.586;8.646;2022-07-24T01:55:18;8.70;;;6.97;;
10641;SDS011;5369;49.586;8.646;2022-07-24T01:57:44;8.40;;;7.60;;
10641;SDS011;5369;49.586;8.646;2022-07-24T02:00:11;8.10;;;7.10;;
10641;SDS011;5369;49.586;8.646;2022-07-24T02:02:41;7.80;;;7.10;;
10641;SDS011;5369;49.586;8.646;2022-07-24T02:05:08;8.60;;;7.80;;
10641;SDS011;5369;49.586;8.646;2022-07-24T02:07:34;8.10;;;7.33;;
10641;SDS011;5369;49.586;8.646;2022-07-24T02:10:01;8.10;;;7.07;;
10641;SDS011;5369;49.586;8.646;2022-07-24T02:12:28;7.93;;;7.13;;
10641;SDS011;5369;49.586;8.646;2022-07-24T02:14:55;7.90;;;7.20;;
10641;SDS011;5369;49.586;8.646;2022-07-24T02:17:23;7.87;;;7.17;;
10641;SDS011;5369;49.586;8.646;2022-07-24T02:19:50;8.20;;;7.40;;
10641;SDS011;5369;49.586;8.646;2022-07-24T02:22:16;8.53;;;7.63;;
10641;SDS011;5369;49.586;8.646;2022-07-24T02:24:42;8.50;;;7.70;;
10641;SDS011;5369;49.586;8.646;2022-07-24T02:27:08;8.03;;;7.20;;
10641;SDS011;5369;49.586;8.646;2022-07-24T02:29:34;8.23;;;7.40;;
10641;SDS011;5369;49.586;8.646;2022-07-24T02:32:01;7.73;;;7.00;;
10641;SDS011;5369;49.586;8.646;2022-07-24T02:34:27;7.57;;;6.87;;
10641;SDS011;5369;49.586;8.646;2022-07-24T02:36:53;11.37;;;6.90;;
10641;SDS011;5369;49.586;8.646;2022-07-24T02:39:19;7.70;;;7.00;;
10641;SDS011;5369;49.586;8.646;2022-07-24T02:41:45;8.70;;;6.93;;
10641;SDS011;5369;49.586;8.646;2022-07-24T02:44:12;7.10;;;6.40;;
10641;SDS011;5369;49.586;8.646;2022-07-24T02:46:38;6.80;;;6.03;;
10641;SDS011;5369;49.586;8.646;2022-07-24T02:49:04;10.30;;;6.50;;
10641;SDS011;5369;49.586;8.646;2022-07-24T02:51:30;9.77;;;6.50;;
10641;SDS011;5369;49.586;8.646;2022-07-24T02:53:56;8.50;;;7.10;;
10641;SDS011;5369;49.586;8.646;2022-07-24T02:56:22;7.00;;;6.20;;
10641;SDS011;5369;49.586;8.646;2022-07-24T02:58:48;7.10;;;6.40;;
10641;SDS011;5369;49.586;8.646;2022-07-24T03:01:15;6.93;;;6.23;;
10641;SDS011;5369;49.586;8.646;2022-07-24T03:03:41;7.53;;;6.80;;
10641;SDS011;5369;49.586;8.646;2022-07-24T03:06:07;7.73;;;6.93;;
10641;SDS011;5369;49.586;8.646;2022-07-24T03:08:33;8.07;;;7.27;;
10641;SDS011;5369;49.586;8.646;2022-07-24T03:10:59;7.93;;;7.13;;
10641;SDS011;5369;49.586;8.646;2022-07-24T03:13:25;7.73;;;7.03;;
10641;SDS011;5369;49.586;8.646;2022-07-24T03:15:51;8.00;;;7.30;;
10641;SDS011;5369;49.586;8.646;2022-07-24T03:18:17;8.70;;;7.13;;
10641;SDS011;5369;49.586;8.646;2022-07-24T03:20:44;7.60;;;6.90;;
10641;SDS011;5369;49.586;8.646;2022-07-24T03:23:10;7.63;;;6.93;;
10641;SDS011;5369;49.586;8.646;2022-07-24T03:25:36;7.80;;;7.10;;
10641;SDS011;5369;49.586;8.646;2022-07-24T03:28:02;8.23;;;6.53;;
10641;SDS011;5369;49.586;8.646;2022-07-24T03:30:29;7.10;;;6.43;;
10641;SDS011;5369;49.586;8.646;2022-07-24T03:32:55;7.50;;;6.80;;
10641;SDS011;5369;49.586;8.646;2022-07-24T03:35:21;7.90;;;7.10;;
10641;SDS011;5369;49.586;8.646;2022-07-24T03:37:47;7.97;;;7.27;;
10641;SDS011;5369;49.586;8.646;2022-07-24T03:40:13;7.63;;;6.93;;
10641;SDS011;5369;49.586;8.646;2022-07-24T03:42:39;8.13;;;7.43;;
10641;SDS011;5369;49.586;8.646;2022-07-24T03:45:06;7.10;;;6.50;;
10641;SDS011;5369;49.586;8.646;2022-07-24T03:47:32;7.87;;;7.07;;
10641;SDS011;5369;49.586;8.646;2022-07-24T03:49:58;7.93;;;6.83;;
10641;SDS011;5369;49.586;8.646;2022-07-24T03:52:25;7.23;;;6.57;;
10641;SDS011;5369;49.586;8.646;2022-07-24T03:54:51;7.63;;;6.93;;
10641;SDS011;5369;49.586;8.646;2022-07-24T03:57:18;8.90;;;8.00;;
10641;SDS011;5369;49.586;8.646;2022-07-24T03:59:44;8.20;;;7.10;;
10641;SDS011;5369;49.586;8.646;2022-07-24T04:02:10;9.67;;;7.40;;
10641;SDS011;5369;49.586;8.646;2022-07-24T04:04:36;9.50;;;7.27;;
10641;SDS011;5369;49.586;8.646;2022-07-24T04:07:02;8.43;;;7.63;;
10641;SDS011;5369;49.586;8.646;2022-07-24T04:09:29;8.17;;;7.20;;
10641;SDS011;5369;49.586;8.646;2022-07-24T04:11:55;8.50;;;7.70;;
10641;SDS011;5369;49.586;8.646;2022-07-24T04:14:21;7.60;;;6.63;;
10641;SDS011;5369;49.586;8.646;2022-07-24T04:16:48;7.73;;;6.60;;
10641;SDS011;5369;49.586;8.646;2022-07-24T04:19:14;7.00;;;6.33;;
10641;SDS011;5369;49.586;8.646;2022-07-24T04:21:40;7.00;;;6.30;;
10641;SDS011;5369;49.586;8.646;2022-07-24T04:24:06;6.57;;;6.00;;
10641;SDS011;5369;49.586;8.646;2022-07-24T04:26:32;14.97;;;6.90;;
10641;SDS011;5369;49.586;8.646;2022-07-24T04:28:59;7.80;;;7.00;;
10641;SDS011;5369;49.586;8.646;2022-07-24T04:31:25;7.57;;;6.80;;
10641;SDS011;5369;49.586;8.646;2022-07-24T04:33:51;8.00;;;7.27;;
10641;SDS011;5369;49.586;8.646;2022-07-24T04:36:17;9.43;;;8.50;;
10641;SDS011;5369;49.586;8.646;2022-07-24T04:38:43;9.00;;;8.10;;
10641;SDS011;5369;49.586;8.646;2022-07-24T04:41:09;9.43;;;8.53;;
10641;SDS011;5369;49.586;8.646;2022-07-24T04:43:35;9.40;;;8.50;;
10641;SDS011;5369;49.586;8.646;2022-07-24T04:46:02;8.70;;;7.77;;
10641;SDS011;5369;49.586;8.646;2022-07-24T04:48:28;8.87;;;7.97;;
10641;SDS011;5369;49.586;8.646;2022-07-24T04:50:54;9.10;;;8.30;;
10641;SDS011;5369;49.586;8.646;2022-07-24T04:53:20;9.47;;;8.60;;
10641;SDS011;5369;49.586;8.646;2022-07-24T04:55:48;9.23;;;8.33;;
10641;SDS011;5369;49.586;8.646;2022-07-24T04:58:14;8.67;;;7.87;;
10641;SDS011;5369;49.586;8.646;2022-07-24T05:00:40;9.47;;;8.47;;
10641;SDS011;5369;49.586;8.646;2022-07-24T05:03:06;9.70;;;8.20;;
10641;SDS011;5369;49.586;8.646;2022-07-24T05:05:33;8.10;;;7.30;;
10641;SDS011;5369;49.586;8.646;2022-07-24T05:07:59;8.40;;;7.60;;
10641;SDS011;5369;49.586;8.646;2022-07-24T05:10:25;8.30;;;7.50;;
10641;SDS011;5369;49.586;8.646;2022-07-24T05:12:51;8.17;;;7.47;;
10641;SDS011;5369;49.586;8.646;2022-07-24T05:15:17;8.60;;;7.70;;
10641;SDS011;5369;49.586;8.646;2022-07-24T05:17:43;9.57;;;7.47;;
10641;SDS011;5369;49.586;8.646;2022-07-24T05:20:09;8.03;;;7.33;;
10641;SDS011;5369;49.586;8.646;2022-07-24T05:22:35;7.60;;;6.90;;
10641;SDS011;5369;49.586;8.646;2022-07-24T05:25:02;7.33;;;6.63;;
10641;SDS011;5369;49.586;8.646;2022-07-24T05:27:28;7.60;;;6.80;;
10641;SDS011;5369;49.586;8.646;2022-07-24T05:29:54;7.80;;;7.00;;
10641;SDS011;5369;49.586;8.646;2022-07-24T05:32:20;7.53;;;6.83;;
10641;SDS011;5369;49.586;8.646;2022-07-24T05:34:47;7.60;;;7.00;;
10641;SDS011;5369;49.586;8.646;2022-07-24T05:37:13;8.17;;;7.27;;
10641;SDS011;5369;49.586;8.646;2022-07-24T05:39:39;7.13;;;6.53;;
10641;SDS011;5369;49.586;8.646;2022-07-24T05:42:05;7.50;;;6.77;;
10641;SDS011;5369;49.586;8.646;2022-07-24T05:44:31;7.43;;;6.83;;
10641;SDS011;5369;49.586;8.646;2022-07-24T05:46:58;7.53;;;6.83;;
10641;SDS011;5369;49.586;8.646;2022-07-24T05:49:24;8.37;;;7.53;;
10641;SDS011;5369;49.586;8.646;2022-07-24T05:51:50;8.70;;;7.23;;
10641;SDS011;5369;49.586;8.646;2022-07-24T05:54:16;8.10;;;7.30;;
10641;SDS011;5369;49.586;8.646;2022-07-24T05:56:43;8.20;;;6.90;;
10641;SDS011;5369;49.586;8.646;2022-07-24T05:59:09;7.73;;;7.07;;
10641;SDS011;5369;49.586;8.646;2022-07-24T06:01:35;7.80;;;7.10;;
10641;SDS011;5369;49.586;8.646;2022-07-24T06:04:01;12.50;;;7.63;;
10641;SDS011;5369;49.586;8.646;2022-07-24T06:06:27;9.57;;;7.60;;
10641;SDS011;5369;49.586;8.646;2022-07-24T06:08:53;8.07;;;7.27;;
10641;SDS011;5369;49.586;8.646;2022-07-24T06:11:20;7.90;;;6.70;;
10641;SDS011;5369;49.586;8.646;2022-07-24T06:13:48;7.43;;;6.83;;
10641;SDS011;5369;49.586;8.646;2022-07-24T06:16:14;7.17;;;6.47;;
10641;SDS011;5369;49.586;8.646;2022-07-24T06:18:40;6.83;;;6.23;;
10641;SDS011;5369;49.586;8.646;2022-07-24T06:21:07;7.13;;;6.27;;
10641;SDS011;5369;49.586;8.646;2022-07-24T06:23:33;6.70;;;6.10;;
10641;SDS011;5369;49.586;8.646;2022-07-24T06:25:59;7.57;;;6.77;;
10641;SDS011;5369;49.586;8.646;2022-07-24T06:28:25;7.30;;;6.50;;
10641;SDS011;5369;49.586;8.646;2022-07-24T06:30:52;6.60;;;6.00;;
10641;SDS011;5369;49.586;8.646;2022-07-24T06:33:18;7.00;;;6.40;;
10641;SDS011;5369;49.586;8.646;2022-07-24T06:35:44;6.90;;;6.30;;
10641;SDS011;5369;49.586;8.646;2022-07-24T06:38:10;7.63;;;6.50;;
10641;SDS011;5369;49.586;8.646;2022-07-24T06:40:37;7.80;;;6.97;;
10641;SDS011;5369;49.586;8.646;2022-07-24T06:43:04;6.63;;;6.03;;
10641;SDS011;5369;49.586;8.646;2022-07-24T06:45:30;6.80;;;6.20;;
10641;SDS011;5369;49.586;8.646;2022-07-24T06:47:59;7.73;;;6.63;;
10641;SDS011;5369;49.586;8.646;2022-07-24T06:50:25;8.83;;;6.90;;
10641;SDS011;5369;49.586;8.646;2022-07-24T06:52:52;10.07;;;6.73;;
10641;SDS011;5369;49.586;8.646;2022-07-24T06:55:18;7.50;;;6.80;;
10641;SDS011;5369;49.586;8.646;2022-07-24T06:57:44;6.77;;;6.27;;
10641;SDS011;5369;49.586;8.646;2022-07-24T07:00:11;6.03;;;5.43;;
10641;SDS011;5369;49.586;8.646;2022-07-24T07:02:37;7.67;;;6.70;;
10641;SDS011;5369;49.586;8.646;2022-07-24T07:05:04;7.97;;;6.20;;
10641;SDS011;5369;49.586;8.646;2022-07-24T07:07:31;8.57;;;6.27;;
10641;SDS011;5369;49.586;8.646;2022-07-24T07:09:57;6.93;;;6.23;;
10641;SDS011;5369;49.586;8.646;2022-07-24T07:12:24;6.70;;;6.10;;
10641;SDS011;5369;49.586;8.646;2022-07-24T07:14:50;7.30;;;6.10;;
10641;SDS011;5369;49.586;8.646;2022-07-24T07:17:16;7.97;;;6.77;;
10641;SDS011;5369;49.586;8.646;2022-07-24T07:19:42;7.23;;;6.43;;
10641;SDS011;5369;49.586;8.646;2022-07-24T07:22:09;6.67;;;6.00;;
10641;SDS011;5369;49.586;8.646;2022-07-24T07:24:36;6.80;;;6.20;;
10641;SDS011;5369;49.586;8.646;2022-07-24T07:27:02;7.77;;;6.23;;
10641;SDS011;5369;49.586;8.646;2022-07-24T07:29:28;7.50;;;6.67;;
10641;SDS011;5369;49.586;8.646;2022-07-24T07:31:54;7.23;;;6.63;;
10641;SDS011;5369;49.586;8.646;2022-07-24T07:34:20;7.10;;;6.20;;
10641;SDS011;5369;49.586;8.646;2022-07-24T07:36:47;7.57;;;6.80;;
10641;SDS011;5369;49.586;8.646;2022-07-24T07:39:13;6.80;;;6.03;;
10641;SDS011;5369;49.586;8.646;2022-07-24T07:41:39;6.40;;;5.80;;
10641;SDS011;5369;49.586;8.646;2022-07-24T07:44:05;7.37;;;6.67;;
10641;SDS011;5369;49.586;8.646;2022-07-24T07:46:32;7.63;;;6.80;;
10641;SDS011;5369;49.586;8.646;2022-07-24T07:48:58;7.00;;;6.30;;
10641;SDS011;5369;49.586;8.646;2022-07-24T07:51:24;7.47;;;6.67;;
10641;SDS011;5369;49.586;8.646;2022-07-24T07:53:50;8.20;;;7.00;;
10641;SDS011;5369;49.586;8.646;2022-07-24T07:56:16;6.83;;;6.17;;
10641;SDS011;5369;49.586;8.646;2022-07-24T07:58:43;6.77;;;6.17;;
10641;SDS011;5369;49.586;8.646;2022-07-24T08:01:09;7.13;;;6.50;;
10641;SDS011;5369;49.586;8.646;2022-07-24T08:03:35;7.17;;;6.47;;
10641;SDS011;5369;49.586;8.646;2022-07-24T08:06:01;7.13;;;6.23;;
10641;SDS011;5369;49.586;8.646;2022-07-24T08:08:29;7.17;;;6.40;;
10641;SDS011;5369;49.586;8.646;2022-07-24T08:10:55;6.70;;;6.10;;
10641;SDS011;5369;49.586;8.646;2022-07-24T08:13:21;7.50;;;6.23;;
10641;SDS011;5369;49.586;8.646;2022-07-24T08:15:48;7.33;;;6.63;;
10641;SDS011;5369;49.586;8.646;2022-07-24T08:18:14;7.00;;;6.30;;
10641;SDS011;5369;49.586;8.646;2022-07-24T08:20:40;7.27;;;6.57;;
10641;SDS011;5369;49.586;8.646;2022-07-24T08:23:09;6.53;;;5.67;;
10641;SDS011;5369;49.586;8.646;2022-07-24T08:25:35;7.63;;;6.57;;
10641;SDS011;5369;49.586;8.646;2022-07-24T08:28:02;8.17;;;6.67;;
10641;SDS011;5369;49.586;8.646;2022-07-24T08:30:28;7.07;;;6.50;;
10641;SDS011;5369;49.586;8.646;2022-07-24T08:32:54;7.80;;;6.90;;
10641;SDS011;5369;49.586;8.646;2022-07-24T08:35:20;7.73;;;6.63;;
10641;SDS011;5369;49.586;8.646;2022-07-24T08:37:48;9.90;;;7.40;;
10641;SDS011;5369;49.586;8.646;2022-07-24T08:40:15;7.53;;;6.70;;
10641;SDS011;5369;49.586;8.646;2022-07-24T08:42:41;6.63;;;6.03;;
10641;SDS011;5369;49.586;8.646;2022-07-24T08:45:08;7.67;;;6.47;;
10641;SDS011;5369;49.586;8.646;2022-07-24T08:47:34;7.23;;;6.63;;
10641;SDS011;5369;49.586;8.646;2022-07-24T08:50:02;7.07;;;6.33;;
10641;SDS011;5369;49.586;8.646;2022-07-24T08:52:29;6.13;;;5.53;;
10641;SDS011;5369;49.586;8.646;2022-07-24T08:54:55;6.90;;;6.30;;
10641;SDS011;5369;49.586;8.646;2022-07-24T08:57:22;7.60;;;6.70;;
10641;SDS011;5369;49.586;8.646;2022-07-24T08:59:48;7.27;;;6.57;;
10641;SDS011;5369;49.586;8.646;2022-07-24T09:02:14;7.50;;;6.80;;
10641;SDS011;5369;49.586;8.646;2022-07-24T09:04:41;7.10;;;6.33;;
10641;SDS011;5369;49.586;8.646;2022-07-24T09:07:13;7.67;;;6.00;;
10641;SDS011;5369;49.586;8.646;2022-07-24T09:09:40;7.00;;;5.80;;
10641;SDS011;5369;49.586;8.646;2022-07-24T09:12:08;6.97;;;6.27;;
10641;SDS011;5369;49.586;8.646;2022-07-24T09:14:37;6.73;;;6.10;;
10641;SDS011;5369;49.586;8.646;2022-07-24T09:17:07;7.83;;;7.10;;
10641;SDS011;5369;49.586;8.646;2022-07-24T09:25:25;7.47;;;6.37;;
10641;SDS011;5369;49.586;8.646;2022-07-24T09:27:48;7.30;;;6.60;;
10641;SDS011;5369;49.586;8.646;2022-07-24T09:30:23;7.73;;;6.90;;
10641;SDS011;5369;49.586;8.646;2022-07-24T09:32:53;6.83;;;6.23;;
10641;SDS011;5369;49.586;8.646;2022-07-24T09:35:24;8.00;;;6.30;;
10641;SDS011;5369;49.586;8.646;2022-07-24T09:37:55;8.17;;;6.90;;
10641;SDS011;5369;49.586;8.646;2022-07-24T09:40:24;7.87;;;6.73;;
10641;SDS011;5369;49.586;8.646;2022-07-24T09:42:55;7.80;;;6.83;;
10641;SDS011;5369;49.586;8.646;2022-07-24T09:45:22;7.47;;;6.80;;
10641;SDS011;5369;49.586;8.646;2022-07-24T09:47:50;7.77;;;6.80;;
10641;SDS011;5369;49.586;8.646;2022-07-24T09:50:18;8.57;;;7.00;;
10641;SDS011;5369;49.586;8.646;2022-07-24T09:52:44;8.50;;;7.50;;
10641;SDS011;5369;49.586;8.646;2022-07-24T09:55:21;6.97;;;6.27;;
10641;SDS011;5369;49.586;8.646;2022-07-24T09:57:47;7.97;;;7.20;;
10641;SDS011;5369;49.586;8.646;2022-07-24T10:00:14;6.97;;;6.37;;
10641;SDS011;5369;49.586;8.646;2022-07-24T10:02:41;6.83;;;6.23;;
10641;SDS011;5369;49.586;8.646;2022-07-24T10:05:08;7.40;;;6.20;;
10641;SDS011;5369;49.586;8.646;2022-07-24T10:07:35;7.87;;;6.70;;
10641;SDS011;5369;49.586;8.646;2022-07-24T10:10:03;7.73;;;7.03;;
10641;SDS011;5369;49.586;8.646;2022-07-24T10:12:29;8.10;;;6.90;;
10641;SDS011;5369;49.586;8.646;2022-07-24T10:14:57;7.30;;;6.60;;
10641;SDS011;5369;49.586;8.646;2022-07-24T10:17:33;8.13;;;6.70;;
10641;SDS011;5369;49.586;8.646;2022-07-24T10:20:00;7.50;;;6.83;;
10641;SDS011;5369;49.586;8.646;2022-07-24T10:22:28;8.10;;;7.30;;
10641;SDS011;5369;49.586;8.646;2022-07-24T10:27:36;8.33;;;7.53;;
10641;SDS011;5369;49.586;8.646;2022-07-24T10:30:04;8.07;;;7.17;;
10641;SDS011;5369;49.586;8.646;2022-07-24T10:32:31;8.40;;;7.60;;
10641;SDS011;5369;49.586;8.646;2022-07-24T10:35:06;7.97;;;7.27;;
10641;SDS011;5369;49.586;8.646;2022-07-24T10:45:42;7.90;;;7.20;;
10641;SDS011;5369;49.586;8.646;2022-07-24T10:48:23;7.57;;;6.90;;
10641;SDS011;5369;49.586;8.646;2022-07-24T10:53:48;7.83;;;7.13;;
10641;SDS011;5369;49.586;8.646;2022-07-24T10:58:50;8.80;;;8.00;;
10641;SDS011;5369;49.586;8.646;2022-07-24T11:09:42;8.13;;;7.50;;
10641;SDS011;5369;49.586;8.646;2022-07-24T11:12:25;8.30;;;7.60;;
10641;SDS011;5369;49.586;8.646;2022-07-24T11:14:52;7.80;;;7.10;;
10641;SDS011;5369;49.586;8.646;2022-07-24T11:17:43;8.43;;;7.73;;
10641;SDS011;5369;49.586;8.646;2022-07-24T11:20:11;7.77;;;7.07;;
10641;SDS011;5369;49.586;8.646;2022-07-24T11:22:45;8.73;;;7.93;;
10641;SDS011;5369;49.586;8.646;2022-07-24T11:25:14;7.70;;;7.00;;
10641;SDS011;5369;49.586;8.646;2022-07-24T11:27:41;8.40;;;7.60;;
10641;SDS011;5369;49.586;8.646;2022-07-24T11:30:07;8.10;;;7.40;;
10641;SDS011;5369;49.586;8.646;2022-07-24T11:32:35;7.67;;;6.90;;
10641;SDS011;5369;49.586;8.646;2022-07-24T11:35:03;7.00;;;6.50;;
10641;SDS011;5369;49.586;8.646;2022-07-24T11:37:31;6.93;;;6.30;;
10641;SDS011;5369;49.586;8.646;2022-07-24T11:39:57;7.07;;;6.37;;
10641;SDS011;5369;49.586;8.646;2022-07-24T11:42:24;6.60;;;6.00;;
10641;SDS011;5369;49.586;8.646;2022-07-24T11:44:50;6.57;;;6.07;;
10641;SDS011;5369;49.586;8.646;2022-07-24T11:47:18;6.47;;;5.97;;
10641;SDS011;5369;49.586;8.646;2022-07-24T11:52:21;7.07;;;6.47;;
10641;SDS011;5369;49.586;8.646;2022-07-24T11:54:49;6.73;;;6.13;;
10641;SDS011;5369;49.586;8.646;2022-07-24T11:57:20;7.13;;;6.47;;
10641;SDS011;5369;49.586;8.646;2022-07-24T11:59:47;6.50;;;5.93;;
10641;SDS011;5369;49.586;8.646;2022-07-24T12:02:14;6.67;;;6.00;;
10641;SDS011;5369;49.586;8.646;2022-07-24T12:04:41;6.23;;;5.63;;
10641;SDS011;5369;49.586;8.646;2022-07-24T12:07:08;6.37;;;5.77;;
10641;SDS011;5369;49.586;8.646;2022-07-24T12:09:51;6.67;;;5.90;;
10641;SDS011;5369;49.586;8.646;2022-07-24T12:12:39;6.07;;;5.57;;
10641;SDS011;5369;49.586;8.646;2022-07-24T12:17:31;5.53;;;5.03;;
10641;SDS011;5369;49.586;8.646;2022-07-24T12:19:58;5.80;;;5.20;;
10641;SDS011;5369;49.586;8.646;2022-07-24T12:22:25;5.83;;;5.20;;
10641;SDS011;5369;49.586;8.646;2022-07-24T12:24:53;5.80;;;5.33;;
10641;SDS011;5369;49.586;8.646;2022-07-24T12:27:32;5.73;;;5.23;;
10641;SDS011;5369;49.586;8.646;2022-07-24T12:29:58;5.50;;;5.10;;
10641;SDS011;5369;49.586;8.646;2022-07-24T12:32:25;5.57;;;5.07;;
10641;SDS011;5369;49.586;8.646;2022-07-24T12:34:52;5.50;;;5.10;;
10641;SDS011;5369;49.586;8.646;2022-07-24T12:37:18;5.33;;;4.83;;
10641;SDS011;5369;49.586;8.646;2022-07-24T12:39:52;5.50;;;5.10;;
10641;SDS011;5369;49.586;8.646;2022-07-24T12:42:28;4.97;;;4.53;;
10641;SDS011;5369;49.586;8.646;2022-07-24T12:45:04;5.83;;;5.30;;
10641;SDS011;5369;49.586;8.646;2022-07-24T12:47:30;5.03;;;4.63;;
10641;SDS011;5369;49.586;8.646;2022-07-24T12:49:57;5.23;;;4.77;;
10641;SDS011;5369;49.586;8.646;2022-07-24T12:52:23;5.50;;;4.93;;
10641;SDS011;5369;49.586;8.646;2022-07-24T12:54:50;5.67;;;5.17;;
10641;SDS011;5369;49.586;8.646;2022-07-24T12:57:20;4.93;;;4.53;;
10641;SDS011;5369;49.586;8.646;2022-07-24T12:59:47;4.57;;;3.87;;
10641;SDS011;5369;49.586;8.646;2022-07-24T13:02:22;4.93;;;4.45;;
10641;SDS011;5369;49.586;8.646;2022-07-24T13:04:50;4.90;;;4.45;;
10641;SDS011;5369;49.586;8.646;2022-07-24T13:07:18;5.20;;;4.80;;
10641;SDS011;5369;49.586;8.646;2022-07-24T13:09:45;4.35;;;4.05;;
10641;SDS011;5369;49.586;8.646;2022-07-24T13:12:12;5.05;;;4.65;;
10641;SDS011;5369;49.586;8.646;2022-07-24T13:14:38;4.85;;;4.45;;
10641;SDS011;5369;49.586;8.646;2022-07-24T13:17:05;4.95;;;4.55;;
10641;SDS011;5369;49.586;8.646;2022-07-24T13:19:34;4.80;;;4.40;;
10641;SDS011;5369;49.586;8.646;2022-07-24T13:22:00;4.80;;;4.35;;
10641;SDS011;5369;49.586;8.646;2022-07-24T13:24:27;4.80;;;4.40;;
10641;SDS011;5369;49.586;8.646;2022-07-24T13:26:55;4.57;;;4.18;;
10641;SDS011;5369;49.586;8.646;2022-07-24T13:29:21;4.82;;;4.53;;
10641;SDS011;5369;49.586;8.646;2022-07-24T13:31:49;5.00;;;4.50;;
10641;SDS011;5369;49.586;8.646;2022-07-24T13:34:15;4.43;;;4.05;;
10641;SDS011;5369;49.586;8.646;2022-07-24T13:36:42;5.95;;;4.82;;
10641;SDS011;5369;49.586;8.646;2022-07-24T13:39:08;4.60;;;4.20;;
10641;SDS011;5369;49.586;8.646;2022-07-24T13:41:34;5.10;;;4.70;;
10641;SDS011;5369;49.586;8.646;2022-07-24T13:44:01;4.72;;;4.40;;
10641;SDS011;5369;49.586;8.646;2022-07-24T13:46:28;5.00;;;4.57;;
10641;SDS011;5369;49.586;8.646;2022-07-24T13:48:54;4.90;;;4.60;;
10641;SDS011;5369;49.586;8.646;2022-07-24T13:51:21;5.25;;;4.75;;
10641;SDS011;5369;49.586;8.646;2022-07-24T13:53:47;5.82;;;4.20;;
10641;SDS011;5369;49.586;8.646;2022-07-24T13:56:13;5.07;;;4.65;;
10641;SDS011;5369;49.586;8.646;2022-07-24T13:58:39;5.07;;;4.60;;
10641;SDS011;5369;49.586;8.646;2022-07-24T14:01:07;4.75;;;4.35;;
10641;SDS011;5369;49.586;8.646;2022-07-24T14:03:33;4.93;;;4.55;;
10641;SDS011;5369;49.586;8.646;2022-07-24T14:06:02;4.88;;;4.47;;
10641;SDS011;5369;49.586;8.646;2022-07-24T14:08:28;5.55;;;5.00;;
10641;SDS011;5369;49.586;8.646;2022-07-24T14:10:54;4.70;;;4.40;;
10641;SDS011;5369;49.586;8.646;2022-07-24T14:13:21;4.88;;;4.38;;
10641;SDS011;5369;49.586;8.646;2022-07-24T14:15:47;4.72;;;4.32;;
10641;SDS011;5369;49.586;8.646;2022-07-24T14:18:13;4.30;;;4.00;;
10641;SDS011;5369;49.586;8.646;2022-07-24T14:20:39;4.47;;;4.07;;
10641;SDS011;5369;49.586;8.646;2022-07-24T14:23:06;4.35;;;4.05;;
10641;SDS011;5369;49.586;8.646;2022-07-24T14:25:32;4.70;;;4.30;;
10641;SDS011;5369;49.586;8.646;2022-07-24T14:27:58;4.90;;;4.22;;
10641;SDS011;5369;49.586;8.646;2022-07-24T14:30:24;4.15;;;3.85;;
10641;SDS011;5369;49.586;8.646;2022-07-24T14:32:50;4.80;;;4.28;;
10641;SDS011;5369;49.586;8.646;2022-07-24T14:35:17;4.15;;;3.85;;
10641;SDS011;5369;49.586;8.646;2022-07-24T14:37:43;4.85;;;4.45;;
10641;SDS011;5369;49.586;8.646;2022-07-24T14:40:09;3.97;;;3.67;;
10641;SDS011;5369;49.586;8.646;2022-07-24T14:42:36;4.25;;;3.95;;
10641;SDS011;5369;49.586;8.646;2022-07-24T14:45:02;4.25;;;3.95;;
10641;SDS011;5369;49.586;8.646;2022-07-24T14:47:29;4.05;;;3.78;;
10641;SDS011;5369;49.586;8.646;2022-07-24T14:49:55;4.30;;;4.00;;
10641;SDS011;5369;49.586;8.646;2022-07-24T14:52:22;4.05;;;3.65;;
10641;SDS011;5369;49.586;8.646;2022-07-24T14:54:48;4.00;;;3.70;;
10641;SDS011;5369;49.586;8.646;2022-07-24T14:57:15;4.07;;;3.63;;
10641;SDS011;5369;49.586;8.646;2022-07-24T14:59:41;4.20;;;3.90;;
10641;SDS011;5369;49.586;8.646;2022-07-24T15:02:08;4.35;;;4.05;;
10641;SDS011;5369;49.586;8.646;2022-07-24T15:04:34;4.40;;;4.00;;
10641;SDS011;5369;49.586;8.646;2022-07-24T15:07:00;4.38;;;4.07;;
10641;SDS011;5369;49.586;8.646;2022-07-24T15:09:27;4.35;;;4.05;;
10641;SDS011;5369;49.586;8.646;2022-07-24T15:11:53;4.32;;;3.92;;
10641;SDS011;5369;49.586;8.646;2022-07-24T15:14:21;3.97;;;3.58;;
10641;SDS011;5369;49.586;8.646;2022-07-24T15:16:47;4.00;;;3.70;;
10641;SDS011;5369;49.586;8.646;2022-07-24T15:19:14;4.25;;;3.85;;
10641;SDS011;5369;49.586;8.646;2022-07-24T15:21:40;5.05;;;4.07;;
10641;SDS011;5369;49.586;8.646;2022-07-24T15:24:06;4.20;;;3.90;;
10641;SDS011;5369;49.586;8.646;2022-07-24T15:26:34;4.00;;;3.67;;
10641;SDS011;5369;49.586;8.646;2022-07-24T15:29:00;4.22;;;3.92;;
10641;SDS011;5369;49.586;8.646;2022-07-24T15:31:27;4.80;;;4.00;;
10641;SDS011;5369;49.586;8.646;2022-07-24T15:33:53;4.57;;;4.28;;